Time;durP1;ratioP1;P1;durP2;ratioP2;P2;SDS_P1;SDS_P2;PMS_P1;PMS_P2;Temp;Humidity;BMP_temperature;BMP_pressure;BME280_temperature;BME280_humidity;BME280_pressure;Samples;Min_cycle;Max_cycle;Signal;HPM_P1;HPM_P2
2024/01/24 00:01:20;;;;;;;29.52;26.35;;;;;;;;;;5031833;28;21005;-77
2024/01/24 00:03:45;;;;;;;30.13;27.02;;;;;;;;;;5027289;28;20462;-77
2024/01/24 00:06:11;;;;;;;33.03;29.55;;;;;;;;;;5030272;28;20028;-76
2024/01/24 00:08:36;;;;;;;35.67;31.80;;;;;;;;;;5028677;28;20028;-76
2024/01/24 00:11:02;;;;;;;39.22;35.00;;;;;;;;;;5028162;28;20029;-76
2024/01/24 00:13:27;;;;;;;48.55;42.50;;;;;;;;;;5029388;28;20021;-76
2024/01/24 00:15:53;;;;;;;59.13;49.42;;;;;;;;;;5028863;28;20028;-76
2024/01/24 00:18:18;;;;;;;63.38;51.35;;;;;;;;;;5025711;28;20034;-77
2024/01/24 00:20:43;;;;;;;59.10;50.15;;;;;;;;;;5029728;28;20025;-76
2024/01/24 00:23:10;;;;;;;57.58;46.95;;;;;;;;;;5014500;28;20030;-77
2024/01/24 00:25:36;;;;;;;45.63;40.05;;;;;;;;;;5015055;28;20029;-75
2024/01/24 00:28:02;;;;;;;43.10;37.80;;;;;;;;;;5016912;28;20091;-75
2024/01/24 00:30:28;;;;;;;41.35;35.03;;;;;;;;;;5032646;28;20029;-75
2024/01/24 00:32:53;;;;;;;40.03;35.50;;;;;;;;;;5032851;28;20064;-75
2024/01/24 00:35:18;;;;;;;36.78;32.13;;;;;;;;;;5034196;28;20032;-76
2024/01/24 00:37:44;;;;;;;35.72;31.38;;;;;;;;;;5031508;28;20081;-75
2024/01/24 00:40:09;;;;;;;30.52;26.92;;;;;;;;;;5034119;28;20495;-77
2024/01/24 00:42:34;;;;;;;28.92;25.95;;;;;;;;;;5035235;28;20441;-75
2024/01/24 00:45:00;;;;;;;29.00;25.05;;;;;;;;;;5032917;28;20021;-77
2024/01/24 00:47:25;;;;;;;29.42;25.83;;;;;;;;;;5020619;28;20036;-76
2024/01/24 00:49:51;;;;;;;29.45;26.20;;;;;;;;;;5033005;28;20032;-76
2024/01/24 00:52:16;;;;;;;30.25;25.88;;;;;;;;;;5029604;28;20036;-75
2024/01/24 00:54:41;;;;;;;26.88;23.48;;;;;;;;;;5030603;28;20108;-75
2024/01/24 00:57:07;;;;;;;28.48;24.67;;;;;;;;;;5032733;28;20472;-77
2024/01/24 00:59:32;;;;;;;30.35;25.83;;;;;;;;;;5031467;28;20068;-74
2024/01/24 01:01:57;;;;;;;29.05;25.85;;;;;;;;;;5018439;28;20275;-75
2024/01/24 01:04:23;;;;;;;31.88;26.45;;;;;;;;;;5030973;28;20086;-75
2024/01/24 01:06:48;;;;;;;27.55;24.63;;;;;;;;;;5033293;28;20032;-76
2024/01/24 01:09:13;;;;;;;25.38;22.65;;;;;;;;;;5036214;28;20034;-75
2024/01/24 01:11:39;;;;;;;33.58;29.98;;;;;;;;;;5026149;28;20097;-75
2024/01/24 01:14:04;;;;;;;44.28;36.97;;;;;;;;;;5025627;28;20421;-76
2024/01/24 01:16:29;;;;;;;29.65;26.48;;;;;;;;;;5034785;28;20384;-74
2024/01/24 01:18:55;;;;;;;28.80;24.40;;;;;;;;;;5035243;28;20025;-76
2024/01/24 01:21:20;;;;;;;28.70;23.25;;;;;;;;;;5034308;28;20372;-76
2024/01/24 01:23:45;;;;;;;33.40;29.67;;;;;;;;;;5048943;28;20372;-76
2024/01/24 01:26:11;;;;;;;38.22;32.17;;;;;;;;;;5027090;28;20064;-76
2024/01/24 01:28:36;;;;;;;30.77;27.63;;;;;;;;;;5030472;28;20056;-76
2024/01/24 01:31:02;;;;;;;35.70;31.25;;;;;;;;;;5015733;28;20064;-76
2024/01/24 01:33:27;;;;;;;36.90;32.38;;;;;;;;;;5027838;28;20053;-76
2024/01/24 01:35:53;;;;;;;30.05;26.80;;;;;;;;;;5028391;28;20093;-75
2024/01/24 01:38:18;;;;;;;30.55;27.25;;;;;;;;;;5022050;28;20463;-76
2024/01/24 01:40:43;;;;;;;38.97;34.45;;;;;;;;;;5030771;28;20433;-75
2024/01/24 01:43:13;;;;;;;43.00;37.67;;;;;;;;;;5030989;28;20039;-77
2024/01/24 01:45:38;;;;;;;;;;;;;;;;;;5020230;28;20410;-77
2024/01/24 01:48:04;;;;;;;80.30;68.97;;;;;;;;;;5028981;28;19913;-78
2024/01/24 01:50:29;;;;;;;67.82;57.58;;;;;;;;;;5035106;28;20263;-77
2024/01/24 01:52:55;;;;;;;44.90;37.40;;;;;;;;;;5031368;28;20029;-76
2024/01/24 01:55:20;;;;;;;66.53;59.20;;;;;;;;;;5031285;28;20028;-77
2024/01/24 01:57:46;;;;;;;61.00;54.13;;;;;;;;;;5034739;28;20083;-76
2024/01/24 02:00:19;;;;;;;124.80;108.32;;;;;;;;;;5032097;28;20056;-76
2024/01/24 02:02:44;;;;;;;101.55;86.63;;;;;;;;;;5032397;28;20056;-76
2024/01/24 02:05:09;;;;;;;79.80;68.28;;;;;;;;;;5032479;28;20117;-78
2024/01/24 02:07:35;;;;;;;107.97;83.13;;;;;;;;;;5031916;28;20095;-78
2024/01/24 02:10:00;;;;;;;77.32;63.10;;;;;;;;;;5033824;28;20382;-76
2024/01/24 02:12:25;;;;;;;71.95;59.78;;;;;;;;;;5031282;28;20087;-75
2024/01/24 02:14:51;;;;;;;75.72;67.50;;;;;;;;;;5029033;28;20398;-76
2024/01/24 02:17:16;;;;;;;87.15;73.80;;;;;;;;;;5032835;28;20430;-77
2024/01/24 02:19:42;;;;;;;106.75;90.97;;;;;;;;;;5033332;28;20086;-75
2024/01/24 02:22:07;;;;;;;77.63;67.32;;;;;;;;;;5035382;28;20021;-76
2024/01/24 02:24:32;;;;;;;86.53;72.80;;;;;;;;;;5032844;28;20425;-75
2024/01/24 02:26:58;;;;;;;87.20;70.78;;;;;;;;;;5031217;28;20458;-75
2024/01/24 02:29:23;;;;;;;66.97;56.25;;;;;;;;;;5031744;28;20036;-78
2024/01/24 02:31:48;;;;;;;41.55;36.92;;;;;;;;;;5032564;28;20017;-78
2024/01/24 02:34:14;;;;;;;45.58;40.42;;;;;;;;;;5032485;28;20033;-78
2024/01/24 02:36:39;;;;;;;33.10;29.60;;;;;;;;;;5038932;28;20112;-77
2024/01/24 02:39:05;;;;;;;52.55;46.67;;;;;;;;;;5037046;28;20458;-78
2024/01/24 02:41:31;;;;;;;44.42;39.53;;;;;;;;;;5041331;28;20029;-78
2024/01/24 02:43:56;;;;;;;54.03;46.80;;;;;;;;;;5033852;28;20060;-76
2024/01/24 02:46:22;;;;;;;68.03;60.35;;;;;;;;;;5034482;28;20025;-79
2024/01/24 02:48:47;;;;;;;70.15;59.92;;;;;;;;;;5036256;28;20032;-77
2024/01/24 02:51:22;;;;;;;63.53;55.55;;;;;;;;;;5028654;28;20369;-77
2024/01/24 02:53:47;;;;;;;59.45;51.45;;;;;;;;;;5029961;28;20032;-78
2024/01/24 02:56:13;;;;;;;53.80;44.58;;;;;;;;;;5034003;28;20025;-78
2024/01/24 02:58:38;;;;;;;45.63;37.65;;;;;;;;;;5034774;28;20052;-77
2024/01/24 03:01:03;;;;;;;59.72;52.08;;;;;;;;;;5034645;28;20033;-77
2024/01/24 03:03:29;;;;;;;58.42;50.50;;;;;;;;;;5032384;28;20110;-76
2024/01/24 03:05:54;;;;;;;56.38;49.90;;;;;;;;;;5036235;28;20041;-76
2024/01/24 03:08:19;;;;;;;50.42;44.75;;;;;;;;;;5033524;28;20079;-76
2024/01/24 03:10:45;;;;;;;51.13;44.83;;;;;;;;;;5038823;28;20114;-76
2024/01/24 03:13:10;;;;;;;50.40;44.97;;;;;;;;;;5052995;28;20021;-77
2024/01/24 03:15:35;;;;;;;60.75;54.13;;;;;;;;;;5036916;28;20070;-78
2024/01/24 03:18:01;;;;;;;63.75;54.90;;;;;;;;;;5042456;28;20025;-76
2024/01/24 03:20:27;;;;;;;56.38;50.13;;;;;;;;;;5037098;28;20025;-75
2024/01/24 03:22:52;;;;;;;51.97;46.30;;;;;;;;;;5040582;28;20017;-75
2024/01/24 03:25:18;;;;;;;61.30;53.65;;;;;;;;;;5044817;28;20028;-77
2024/01/24 03:27:44;;;;;;;56.30;49.85;;;;;;;;;;5037456;28;20025;-76
2024/01/24 03:30:09;;;;;;;53.58;46.72;;;;;;;;;;5035136;28;20479;-76
2024/01/24 03:32:35;;;;;;;56.72;49.53;;;;;;;;;;5033987;28;20085;-78
2024/01/24 03:35:00;;;;;;;55.17;46.25;;;;;;;;;;5039526;28;20025;-75
2024/01/24 03:37:25;;;;;;;50.38;42.00;;;;;;;;;;5058304;28;20040;-76
2024/01/24 03:39:51;;;;;;;43.35;37.67;;;;;;;;;;5033512;28;20039;-75
2024/01/24 03:42:17;;;;;;;51.00;43.65;;;;;;;;;;5035577;28;20641;-76
2024/01/24 03:44:42;;;;;;;46.05;39.00;;;;;;;;;;5029585;28;20025;-76
2024/01/24 03:47:07;;;;;;;47.85;42.70;;;;;;;;;;5025809;28;20147;-76
2024/01/24 03:49:33;;;;;;;52.92;44.80;;;;;;;;;;5035320;28;20030;-75
2024/01/24 03:51:58;;;;;;;45.22;40.35;;;;;;;;;;5037891;28;20456;-75
2024/01/24 03:54:24;;;;;;;60.28;48.20;;;;;;;;;;5036764;28;20021;-75
2024/01/24 03:56:49;;;;;;;61.33;48.25;;;;;;;;;;5030974;28;20043;-76
2024/01/24 03:59:14;;;;;;;57.45;47.83;;;;;;;;;;5017185;28;20033;-76
2024/01/24 04:01:40;;;;;;;45.60;39.22;;;;;;;;;;5034395;28;20422;-76
2024/01/24 04:04:05;;;;;;;39.53;33.53;;;;;;;;;;5034072;28;20320;-74
2024/01/24 04:06:31;;;;;;;40.17;34.65;;;;;;;;;;5025578;28;20108;-77
2024/01/24 04:08:56;;;;;;;50.95;45.05;;;;;;;;;;5024124;28;20030;-76
2024/01/24 04:11:21;;;;;;;43.55;38.28;;;;;;;;;;5036479;28;20021;-76
2024/01/24 04:13:51;;;;;;;45.22;39.78;;;;;;;;;;5034650;28;20133;-76
2024/01/24 04:16:16;;;;;;;36.03;32.15;;;;;;;;;;5037646;28;20032;-76
2024/01/24 04:18:42;;;;;;;47.22;39.70;;;;;;;;;;5030812;28;20090;-76
2024/01/24 04:21:07;;;;;;;54.35;48.40;;;;;;;;;;5034182;28;20033;-76
2024/01/24 04:23:33;;;;;;;39.28;35.08;;;;;;;;;;5032817;28;20089;-77
2024/01/24 04:25:58;;;;;;;41.90;37.40;;;;;;;;;;5047026;28;20483;-77
2024/01/24 04:28:23;;;;;;;36.45;32.47;;;;;;;;;;5032433;28;20142;-77
2024/01/24 04:30:49;;;;;;;41.28;36.97;;;;;;;;;;5034568;28;20029;-76
2024/01/24 04:33:14;;;;;;;34.80;31.10;;;;;;;;;;5033248;28;20050;-77
2024/01/24 04:35:40;;;;;;;32.78;29.27;;;;;;;;;;5032504;28;20026;-77
2024/01/24 04:38:05;;;;;;;32.03;28.63;;;;;;;;;;5034871;28;20033;-77
2024/01/24 04:40:30;;;;;;;35.97;31.42;;;;;;;;;;5032820;28;20035;-77
2024/01/24 04:42:56;;;;;;;34.95;29.27;;;;;;;;;;5034257;28;20052;-77
2024/01/24 04:45:21;;;;;;;31.25;27.88;;;;;;;;;;5034964;28;20033;-77
2024/01/24 04:47:46;;;;;;;37.95;33.65;;;;;;;;;;5034056;28;20029;-76
2024/01/24 04:50:12;;;;;;;32.00;28.60;;;;;;;;;;5034138;28;20436;-77
2024/01/24 04:52:37;;;;;;;31.33;27.98;;;;;;;;;;5035397;28;20414;-76
2024/01/24 04:55:03;;;;;;;37.22;31.05;;;;;;;;;;5034581;28;20064;-77
2024/01/24 04:57:28;;;;;;;52.90;43.15;;;;;;;;;;5031702;28;20091;-76
2024/01/24 04:59:53;;;;;;;38.05;33.92;;;;;;;;;;5034610;28;20037;-76
2024/01/24 05:02:19;;;;;;;33.47;28.42;;;;;;;;;;5032713;28;20044;-76
2024/01/24 05:04:45;;;;;;;38.10;33.97;;;;;;;;;;5038283;28;20024;-77
2024/01/24 05:07:10;;;;;;;55.75;47.33;;;;;;;;;;5033869;28;20037;-76
2024/01/24 05:09:36;;;;;;;60.05;48.15;;;;;;;;;;5032989;28;20128;-77
2024/01/24 05:12:01;;;;;;;52.60;45.72;;;;;;;;;;5020152;28;20063;-77
2024/01/24 05:14:26;;;;;;;52.22;45.55;;;;;;;;;;5031492;28;20083;-77
2024/01/24 05:16:52;;;;;;;94.78;76.35;;;;;;;;;;5032617;28;20033;-75
2024/01/24 05:19:17;;;;;;;139.30;107.35;;;;;;;;;;5032658;28;20026;-76
2024/01/24 05:21:43;;;;;;;115.22;98.97;;;;;;;;;;5032270;28;20130;-78
2024/01/24 05:24:09;;;;;;;77.32;64.85;;;;;;;;;;5020756;28;20044;-77
2024/01/24 05:26:35;;;;;;;63.85;52.40;;;;;;;;;;5031624;28;20033;-77
2024/01/24 05:29:00;;;;;;;147.13;123.57;;;;;;;;;;5032583;28;20031;-76
2024/01/24 05:31:26;;;;;;;150.15;125.93;;;;;;;;;;5035599;28;20030;-76
2024/01/24 05:33:51;;;;;;;177.48;147.80;;;;;;;;;;5030414;28;20053;-76
2024/01/24 05:36:17;;;;;;;186.05;159.50;;;;;;;;;;5033962;28;20202;-76
2024/01/24 05:38:42;;;;;;;111.25;95.32;;;;;;;;;;5032176;28;20441;-76
2024/01/24 05:41:08;;;;;;;62.15;55.17;;;;;;;;;;5024989;28;20025;-77
2024/01/24 05:43:33;;;;;;;85.82;72.53;;;;;;;;;;5025181;28;20114;-77
2024/01/24 05:45:59;;;;;;;73.20;59.85;;;;;;;;;;5018200;28;20032;-76
2024/01/24 05:48:24;;;;;;;177.20;134.95;;;;;;;;;;5034247;28;20037;-76
2024/01/24 05:50:50;;;;;;;271.35;229.43;;;;;;;;;;5029380;28;20151;-77
2024/01/24 05:53:15;;;;;;;228.48;192.98;;;;;;;;;;5031878;28;20028;-75
2024/01/24 05:55:40;;;;;;;80.70;65.40;;;;;;;;;;5030942;28;20083;-76
2024/01/24 05:58:06;;;;;;;225.98;139.82;;;;;;;;;;5031082;28;20364;-75
2024/01/24 06:00:31;;;;;;;480.90;305.45;;;;;;;;;;5031035;28;20108;-76
2024/01/24 06:02:56;;;;;;;345.70;216.45;;;;;;;;;;5033609;28;20034;-76
2024/01/24 06:05:22;;;;;;;205.50;164.82;;;;;;;;;;5032414;28;20035;-77
2024/01/24 06:07:50;;;;;;;132.05;110.15;;;;;;;;;;5031525;28;20091;-76
2024/01/24 06:10:16;;;;;;;128.32;110.90;;;;;;;;;;5020949;28;20033;-76
2024/01/24 06:12:41;;;;;;;136.57;115.85;;;;;;;;;;5029036;28;20029;-75
2024/01/24 06:15:07;;;;;;;150.43;129.80;;;;;;;;;;5026387;28;20036;-76
2024/01/24 06:17:33;;;;;;;89.45;79.55;;;;;;;;;;5031295;28;20025;-77
2024/01/24 06:19:59;;;;;;;104.60;93.57;;;;;;;;;;5018699;28;20036;-76
2024/01/24 06:22:25;;;;;;;102.05;91.30;;;;;;;;;;5024908;28;20024;-77
2024/01/24 06:24:50;;;;;;;84.97;75.63;;;;;;;;;;5023254;28;20030;-75
2024/01/24 06:27:16;;;;;;;104.68;93.15;;;;;;;;;;5034433;28;21169;-77
2024/01/24 06:29:41;;;;;;;73.85;62.78;;;;;;;;;;5017188;28;20033;-77
2024/01/24 06:32:07;;;;;;;72.50;64.60;;;;;;;;;;5019631;28;20123;-78
2024/01/24 06:34:32;;;;;;;64.45;57.50;;;;;;;;;;5037622;28;20360;-78
2024/01/24 06:36:57;;;;;;;70.82;62.95;;;;;;;;;;5017673;28;20036;-77
2024/01/24 06:39:23;;;;;;;108.85;97.40;;;;;;;;;;5023859;28;20037;-76
2024/01/24 06:41:48;;;;;;;244.68;190.88;;;;;;;;;;5034393;28;20028;-75
2024/01/24 06:44:14;;;;;;;206.70;157.68;;;;;;;;;;5027734;28;20151;-76
2024/01/24 06:46:44;;;;;;;230.30;179.18;;;;;;;;;;5026851;28;20033;-76
2024/01/24 06:49:10;;;;;;;165.18;147.38;;;;;;;;;;5036870;28;20091;-75
2024/01/24 06:51:37;;;;;;;101.35;88.43;;;;;;;;;;5033862;28;20466;-75
2024/01/24 06:54:03;;;;;;;81.95;71.97;;;;;;;;;;5035563;28;20060;-75
2024/01/24 06:56:28;;;;;;;99.88;84.25;;;;;;;;;;5033594;28;20068;-76
2024/01/24 06:58:53;;;;;;;105.40;85.97;;;;;;;;;;5036374;28;20357;-75
2024/01/24 07:01:19;;;;;;;72.07;61.08;;;;;;;;;;5037149;28;20036;-75
2024/01/24 07:03:44;;;;;;;81.93;73.00;;;;;;;;;;5035095;28;20053;-75
2024/01/24 07:06:10;;;;;;;52.67;46.10;;;;;;;;;;5033195;28;20026;-74
2024/01/24 07:08:37;;;;;;;43.45;38.78;;;;;;;;;;5040073;28;20043;-76
2024/01/24 07:11:03;;;;;;;64.53;47.50;;;;;;;;;;5036127;28;20421;-75
2024/01/24 07:13:28;;;;;;;75.78;51.70;;;;;;;;;;5037478;28;20056;-75
2024/01/24 07:15:53;;;;;;;76.72;52.25;;;;;;;;;;5033691;28;20111;-75
2024/01/24 07:18:19;;;;;;;54.78;44.65;;;;;;;;;;5039847;28;20463;-75
2024/01/24 07:20:44;;;;;;;77.68;66.18;;;;;;;;;;5038834;28;20351;-75
2024/01/24 07:23:10;;;;;;;155.43;113.55;;;;;;;;;;5036212;28;20017;-75
2024/01/24 07:25:35;;;;;;;88.80;64.88;;;;;;;;;;5037605;28;20032;-75
2024/01/24 07:28:00;;;;;;;58.58;52.28;;;;;;;;;;5035796;28;20040;-75
2024/01/24 07:30:26;;;;;;;65.50;50.03;;;;;;;;;;5033038;28;20023;-75
2024/01/24 07:32:51;;;;;;;93.30;76.72;;;;;;;;;;5035364;28;20136;-76
2024/01/24 07:35:16;;;;;;;57.10;51.17;;;;;;;;;;5035050;28;20036;-74
2024/01/24 07:37:44;;;;;;;56.38;48.00;;;;;;;;;;5032838;28;20029;-75
2024/01/24 07:40:10;;;;;;;58.00;47.28;;;;;;;;;;5035013;28;20083;-75
2024/01/24 07:42:36;;;;;;;60.35;50.70;;;;;;;;;;5032625;28;20459;-74
2024/01/24 07:45:01;;;;;;;80.65;67.05;;;;;;;;;;5034990;28;20033;-75
2024/01/24 07:47:26;;;;;;;63.00;56.20;;;;;;;;;;5032840;28;20033;-77
2024/01/24 07:49:52;;;;;;;80.88;69.50;;;;;;;;;;5036512;28;20029;-75
2024/01/24 07:52:18;;;;;;;90.45;78.93;;;;;;;;;;5037893;28;20029;-75
2024/01/24 07:54:44;;;;;;;81.43;72.22;;;;;;;;;;5032955;28;20033;-75
2024/01/24 07:57:09;;;;;;;109.32;86.30;;;;;;;;;;5034322;28;20029;-76
2024/01/24 07:59:34;;;;;;;129.15;106.47;;;;;;;;;;5037837;28;20041;-76
2024/01/24 08:02:02;;;;;;;105.57;93.43;;;;;;;;;;5038120;28;20026;-75
2024/01/24 08:04:28;;;;;;;93.32;82.53;;;;;;;;;;5039338;28;20087;-74
2024/01/24 08:06:54;;;;;;;92.60;78.30;;;;;;;;;;5037272;28;20052;-75
2024/01/24 08:09:19;;;;;;;82.90;69.57;;;;;;;;;;5030546;28;20025;-75
2024/01/24 08:11:45;;;;;;;78.03;67.13;;;;;;;;;;5031921;28;20128;-76
2024/01/24 08:14:10;;;;;;;57.63;48.63;;;;;;;;;;5033873;28;20433;-76
2024/01/24 08:16:36;;;;;;;49.83;44.20;;;;;;;;;;5041624;28;20035;-79
2024/01/24 08:19:01;;;;;;;65.82;56.78;;;;;;;;;;5035820;28;20040;-76
2024/01/24 08:21:27;;;;;;;115.43;90.43;;;;;;;;;;5036650;28;20024;-74
2024/01/24 08:23:53;;;;;;;74.57;61.97;;;;;;;;;;5036260;28;20059;-73
2024/01/24 08:26:18;;;;;;;64.45;52.38;;;;;;;;;;5034476;28;20025;-75
2024/01/24 08:28:43;;;;;;;83.43;69.90;;;;;;;;;;5031405;28;20360;-75
2024/01/24 08:31:09;;;;;;;123.20;107.97;;;;;;;;;;5030258;28;20017;-75
2024/01/24 08:33:35;;;;;;;94.78;85.70;;;;;;;;;;5022102;28;20045;-75
2024/01/24 08:36:00;;;;;;;62.90;56.75;;;;;;;;;;5017984;28;20021;-75
2024/01/24 08:38:26;;;;;;;52.80;47.40;;;;;;;;;;5026313;28;20500;-75
2024/01/24 08:40:51;;;;;;;59.70;50.60;;;;;;;;;;5033980;28;20064;-75
2024/01/24 08:43:16;;;;;;;44.55;39.67;;;;;;;;;;5032787;28;20089;-76
2024/01/24 08:45:42;;;;;;;41.92;37.40;;;;;;;;;;5035172;28;20150;-76
2024/01/24 08:48:07;;;;;;;36.10;31.52;;;;;;;;;;5034448;28;20032;-74
2024/01/24 08:50:33;;;;;;;44.40;35.85;;;;;;;;;;5034633;28;20021;-74
2024/01/24 08:52:58;;;;;;;37.55;33.53;;;;;;;;;;5022309;28;20048;-75
2024/01/24 08:55:24;;;;;;;47.08;42.38;;;;;;;;;;5032033;28;20433;-74
2024/01/24 08:57:49;;;;;;;36.40;32.50;;;;;;;;;;5033659;28;20026;-77
2024/01/24 09:00:15;;;;;;;78.05;70.40;;;;;;;;;;5031553;28;20710;-74
2024/01/24 09:02:40;;;;;;;56.60;50.40;;;;;;;;;;5033128;28;20402;-74
2024/01/24 09:05:08;;;;;;;67.25;56.42;;;;;;;;;;5033713;28;20026;-77
2024/01/24 09:07:33;;;;;;;37.75;33.75;;;;;;;;;;5033522;28;20053;-75
2024/01/24 09:09:59;;;;;;;46.75;37.38;;;;;;;;;;5033332;28;20052;-76
2024/01/24 09:12:24;;;;;;;65.28;53.63;;;;;;;;;;5035786;28;20177;-76
2024/01/24 09:14:49;;;;;;;65.28;52.08;;;;;;;;;;5033279;28;20029;-75
2024/01/24 09:17:17;;;;;;;64.68;49.40;;;;;;;;;;5035028;28;20064;-74
2024/01/24 09:19:42;;;;;;;55.28;43.78;;;;;;;;;;5032007;28;20495;-75
2024/01/24 09:22:09;;;;;;;67.13;53.75;;;;;;;;;;5032075;28;20013;-76
2024/01/24 09:24:34;;;;;;;60.38;46.88;;;;;;;;;;5026345;28;20077;-76
2024/01/24 09:27:00;;;;;;;36.45;32.63;;;;;;;;;;5027042;28;20064;-75
2024/01/24 09:29:25;;;;;;;61.28;45.90;;;;;;;;;;5029614;28;20176;-75
2024/01/24 09:31:52;;;;;;;69.10;52.65;;;;;;;;;;5032757;28;20044;-75
2024/01/24 09:34:17;;;;;;;52.30;43.85;;;;;;;;;;5032542;28;20021;-74
2024/01/24 09:36:43;;;;;;;45.30;38.67;;;;;;;;;;5030666;28;20032;-75
2024/01/24 09:39:11;;;;;;;37.50;33.65;;;;;;;;;;5035395;28;20428;-75
2024/01/24 09:41:40;;;;;;;30.02;26.83;;;;;;;;;;5031869;28;20167;-74
2024/01/24 09:44:09;;;;;;;32.85;29.33;;;;;;;;;;5034830;28;20087;-76
2024/01/24 09:46:36;;;;;;;62.15;45.17;;;;;;;;;;5035975;28;20017;-75
2024/01/24 09:49:02;;;;;;;34.63;30.35;;;;;;;;;;5039019;28;20036;-75
2024/01/24 09:51:29;;;;;;;40.05;35.67;;;;;;;;;;5038809;28;20021;-75
2024/01/24 09:53:56;;;;;;;25.92;23.13;;;;;;;;;;5033938;28;20083;-75
2024/01/24 09:56:22;;;;;;;40.60;36.17;;;;;;;;;;5035834;28;20079;-74
2024/01/24 09:58:48;;;;;;;38.53;34.47;;;;;;;;;;5028273;28;20037;-76
2024/01/24 10:01:13;;;;;;;39.10;34.83;;;;;;;;;;5028704;28;20043;-75
2024/01/24 10:03:39;;;;;;;54.33;47.92;;;;;;;;;;5038027;28;20131;-75
2024/01/24 10:06:08;;;;;;;41.75;37.28;;;;;;;;;;5035598;28;20018;-77
2024/01/24 10:08:34;;;;;;;42.35;37.70;;;;;;;;;;5022352;28;20472;-75
2024/01/24 10:10:59;;;;;;;47.85;42.78;;;;;;;;;;5037125;28;20048;-77
2024/01/24 10:13:27;;;;;;;41.55;37.05;;;;;;;;;;5037333;28;20024;-76
2024/01/24 10:15:53;;;;;;;35.47;31.55;;;;;;;;;;5019287;28;20368;-76
2024/01/24 10:18:19;;;;;;;37.63;31.05;;;;;;;;;;5037747;28;20033;-77
2024/01/24 10:20:46;;;;;;;39.50;33.65;;;;;;;;;;5040177;28;20032;-75
2024/01/24 10:23:11;;;;;;;51.25;40.03;;;;;;;;;;5034995;28;20905;-74
2024/01/24 10:25:41;;;;;;;82.25;58.10;;;;;;;;;;5036287;28;20103;-75
2024/01/24 10:28:06;;;;;;;;;;;;;;;;;;5037154;28;20044;-76
2024/01/24 10:30:31;;;;;;;23.53;20.83;;;;;;;;;;5039219;28;19909;-76
2024/01/24 10:32:58;;;;;;;18.20;16.25;;;;;;;;;;5037878;28;20468;-76
2024/01/24 10:35:23;;;;;;;24.13;20.52;;;;;;;;;;5034390;28;20021;-76
2024/01/24 10:37:49;;;;;;;31.80;28.45;;;;;;;;;;5035187;28;20052;-76
2024/01/24 10:40:15;;;;;;;41.03;35.58;;;;;;;;;;5038287;28;20449;-76
2024/01/24 10:42:41;;;;;;;39.65;35.35;;;;;;;;;;5034917;28;20021;-76
2024/01/24 10:45:07;;;;;;;36.33;32.47;;;;;;;;;;5037858;28;20440;-76
2024/01/24 10:47:33;;;;;;;35.08;31.30;;;;;;;;;;5034866;28;20033;-76
2024/01/24 10:50:02;;;;;;;31.30;28.10;;;;;;;;;;5036719;28;20022;-76
2024/01/24 10:52:27;;;;;;;;;;;;;;;;;;5035363;28;20025;-76
2024/01/24 10:54:53;;;;;;;33.80;29.83;;;;;;;;;;5032040;28;19913;-76
2024/01/24 10:57:19;;;;;;;30.08;26.88;;;;;;;;;;5035521;28;20033;-76
2024/01/24 10:59:44;;;;;;;22.63;20.23;;;;;;;;;;5034619;28;20040;-76
2024/01/24 11:02:10;;;;;;;17.45;15.77;;;;;;;;;;5032190;28;21200;-75
2024/01/24 11:04:36;;;;;;;14.55;13.15;;;;;;;;;;5032913;28;20143;-76
2024/01/24 11:07:07;;;;;;;18.52;16.52;;;;;;;;;;5035856;28;20322;-76
2024/01/24 11:09:48;;;;;;;12.88;11.63;;;;;;;;;;5050145;28;20036;-77
2024/01/24 11:12:14;;;;;;;12.48;10.23;;;;;;;;;;5036726;28;20150;-76
2024/01/24 11:14:44;;;;;;;12.00;10.23;;;;;;;;;;5032457;28;20465;-76
2024/01/24 11:17:09;;;;;;;11.05;9.95;;;;;;;;;;5034218;28;20021;-76
2024/01/24 11:19:35;;;;;;;16.85;15.05;;;;;;;;;;5035103;28;20375;-78
2024/01/24 11:22:06;;;;;;;50.47;45.53;;;;;;;;;;5034480;28;20025;-75
2024/01/24 11:24:40;;;;;;;15.90;14.35;;;;;;;;;;5035095;28;20052;-76
2024/01/24 11:27:25;;;;;;;25.15;22.65;;;;;;;;;;5035122;28;20111;-77
2024/01/24 11:29:51;;;;;;;17.27;15.57;;;;;;;;;;5036899;28;20036;-77
2024/01/24 11:32:35;;;;;;;21.88;19.77;;;;;;;;;;5020657;28;20107;-78
2024/01/24 11:35:19;;;;;;;18.20;16.38;;;;;;;;;;5034435;28;20029;-76
2024/01/24 11:37:44;;;;;;;17.85;16.05;;;;;;;;;;5032170;28;20274;-77
2024/01/24 11:40:11;;;;;;;23.63;21.00;;;;;;;;;;5034979;28;20111;-76
2024/01/24 11:42:36;;;;;;;19.25;17.05;;;;;;;;;;5036227;28;20048;-75
2024/01/24 11:45:17;;;;;;;15.25;12.63;;;;;;;;;;5036709;28;20036;-75
2024/01/24 11:47:43;;;;;;;18.55;16.65;;;;;;;;;;5036531;28;20028;-76
2024/01/24 11:50:09;;;;;;;17.90;16.20;;;;;;;;;;5036724;28;20094;-76
2024/01/24 11:52:34;;;;;;;17.80;16.15;;;;;;;;;;5035313;28;20028;-76
2024/01/24 11:55:00;;;;;;;15.95;14.45;;;;;;;;;;5036160;28;20421;-76
2024/01/24 11:57:27;;;;;;;27.40;23.98;;;;;;;;;;5035506;28;20071;-76
2024/01/24 11:59:53;;;;;;;40.05;30.75;;;;;;;;;;5036441;28;20122;-76
2024/01/24 12:02:18;;;;;;;41.40;30.83;;;;;;;;;;5036365;28;20427;-76
2024/01/24 12:04:43;;;;;;;68.30;47.25;;;;;;;;;;5033240;28;20534;-76
2024/01/24 12:07:09;;;;;;;15.70;13.02;;;;;;;;;;5032772;28;20329;-75
2024/01/24 12:09:34;;;;;;;34.65;26.27;;;;;;;;;;5033947;28;20029;-76
2024/01/24 12:12:00;;;;;;;20.27;16.92;;;;;;;;;;5033427;28;20116;-76
2024/01/24 12:14:25;;;;;;;17.52;15.70;;;;;;;;;;5036889;28;20137;-76
2024/01/24 12:16:53;;;;;;;20.17;18.17;;;;;;;;;;5035086;28;20094;-77
2024/01/24 12:19:19;;;;;;;17.47;15.67;;;;;;;;;;5035283;28;20021;-76
2024/01/24 12:21:44;;;;;;;13.32;11.88;;;;;;;;;;5033843;28;20253;-76
2024/01/24 12:24:10;;;;;;;12.32;11.13;;;;;;;;;;5034985;28;20020;-76
2024/01/24 12:26:36;;;;;;;12.45;11.15;;;;;;;;;;5032296;28;20025;-77
2024/01/24 12:29:03;;;;;;;13.32;11.98;;;;;;;;;;5034859;28;20101;-76
2024/01/24 12:31:28;;;;;;;14.18;12.77;;;;;;;;;;5035046;28;20025;-77
2024/01/24 12:33:55;;;;;;;15.02;13.43;;;;;;;;;;5034827;28;20051;-77
2024/01/24 12:36:22;;;;;;;15.95;14.40;;;;;;;;;;5036650;28;20033;-78
2024/01/24 12:38:47;;;;;;;15.43;13.93;;;;;;;;;;5032983;28;20041;-77
2024/01/24 12:41:13;;;;;;;16.10;14.63;;;;;;;;;;5029260;28;20039;-76
2024/01/24 12:43:38;;;;;;;17.30;15.60;;;;;;;;;;5033321;28;20025;-76
2024/01/24 12:46:04;;;;;;;15.25;13.38;;;;;;;;;;5038277;28;20025;-75
2024/01/24 12:48:29;;;;;;;15.27;13.50;;;;;;;;;;5033233;28;20052;-76
2024/01/24 12:50:55;;;;;;;12.88;11.38;;;;;;;;;;5032051;28;20437;-76
2024/01/24 12:53:21;;;;;;;18.17;16.45;;;;;;;;;;5036681;28;20021;-76
2024/01/24 12:55:47;;;;;;;15.38;13.68;;;;;;;;;;5038407;28;20033;-77
2024/01/24 12:58:12;;;;;;;46.85;41.72;;;;;;;;;;5037981;28;20024;-77
2024/01/24 13:00:38;;;;;;;13.15;11.57;;;;;;;;;;5034710;28;20052;-76
2024/01/24 13:03:04;;;;;;;19.05;17.17;;;;;;;;;;5034543;28;20029;-75
2024/01/24 13:05:30;;;;;;;17.75;15.85;;;;;;;;;;5031976;28;20029;-77
2024/01/24 13:07:55;;;;;;;19.00;17.10;;;;;;;;;;5032443;28;20047;-76
2024/01/24 13:10:21;;;;;;;29.48;26.92;;;;;;;;;;5034889;28;20037;-76
2024/01/24 13:12:46;;;;;;;23.85;21.35;;;;;;;;;;5021437;28;20060;-77
2024/01/24 13:15:11;;;;;;;24.02;21.63;;;;;;;;;;5015131;28;20049;-76
2024/01/24 13:17:37;;;;;;;16.65;14.85;;;;;;;;;;5018059;28;20453;-75
2024/01/24 13:20:05;;;;;;;23.70;21.33;;;;;;;;;;5024341;28;20044;-75
2024/01/24 13:22:30;;;;;;;12.00;10.45;;;;;;;;;;5018021;28;20040;-75
2024/01/24 13:24:56;;;;;;;18.10;16.23;;;;;;;;;;5027585;28;20341;-76
2024/01/24 13:27:21;;;;;;;13.90;12.45;;;;;;;;;;5031091;28;20025;-76
2024/01/24 13:29:46;;;;;;;14.35;13.00;;;;;;;;;;5019502;28;20594;-76
2024/01/24 13:32:12;;;;;;;18.50;16.30;;;;;;;;;;5031013;28;20077;-76
2024/01/24 13:34:37;;;;;;;14.52;12.85;;;;;;;;;;5035566;28;20083;-75
2024/01/24 13:37:02;;;;;;;12.23;10.25;;;;;;;;;;5022627;28;20057;-76
2024/01/24 13:39:28;;;;;;;15.23;12.75;;;;;;;;;;5020370;28;20025;-75
2024/01/24 13:41:53;;;;;;;17.02;14.65;;;;;;;;;;5028718;28;20031;-76
2024/01/24 13:44:20;;;;;;;20.20;17.90;;;;;;;;;;5020210;28;20040;-75
2024/01/24 13:46:46;;;;;;;11.38;10.32;;;;;;;;;;5025749;28;20252;-76
2024/01/24 13:49:12;;;;;;;10.70;8.85;;;;;;;;;;5038118;28;20382;-75
2024/01/24 13:51:38;;;;;;;10.52;8.10;;;;;;;;;;5032905;28;20021;-76
2024/01/24 13:54:03;;;;;;;8.65;7.75;;;;;;;;;;5032185;28;20120;-75
2024/01/24 13:56:28;;;;;;;19.63;16.80;;;;;;;;;;5032646;28;20031;-77
2024/01/24 13:58:54;;;;;;;29.05;24.52;;;;;;;;;;5030378;28;20036;-76
2024/01/24 14:01:19;;;;;;;24.77;22.00;;;;;;;;;;5029442;28;20033;-75
2024/01/24 14:03:44;;;;;;;22.65;20.15;;;;;;;;;;5033720;28;20033;-76
2024/01/24 14:06:10;;;;;;;20.65;15.60;;;;;;;;;;5033164;28;20344;-75
2024/01/24 14:08:38;;;;;;;17.17;14.68;;;;;;;;;;5030422;28;20029;-75